sensor_id;sensor_type;location;lat;lon;timestamp;pressure;altitude;pressure_sealevel;temperature;humidity
35248;BME280;21380;52.194;20.520;2023-05-31T00:01:36;101261.44;;;20.99;45.63
35248;BME280;21380;52.194;20.520;2023-05-31T00:04:02;101263.22;;;20.98;45.61
35248;BME280;21380;52.194;20.520;2023-05-31T00:06:28;101267.56;;;20.98;45.61
35248;BME280;21380;52.194;20.520;2023-05-31T00:08:54;101265.78;;;20.97;45.64
35248;BME280;21380;52.194;20.520;2023-05-31T00:11:20;101271.03;;;20.95;45.71
35248;BME280;21380;52.194;20.520;2023-05-31T00:13:46;101275.41;;;20.95;45.60
35248;BME280;21380;52.194;20.520;2023-05-31T00:16:12;101281.50;;;20.94;45.69
35248;BME280;21380;52.194;20.520;2023-05-31T00:18:39;101269.22;;;20.89;45.83
35248;BME280;21380;52.194;20.520;2023-05-31T00:21:04;101261.38;;;20.89;45.67
35248;BME280;21380;52.194;20.520;2023-05-31T00:23:30;101263.91;;;20.83;45.58
35248;BME280;21380;52.194;20.520;2023-05-31T00:25:56;101275.34;;;20.90;45.86
35248;BME280;21380;52.194;20.520;2023-05-31T00:28:22;101277.97;;;20.88;45.77
35248;BME280;21380;52.194;20.520;2023-05-31T00:30:48;101285.81;;;20.88;45.77
35248;BME280;21380;52.194;20.520;2023-05-31T00:33:14;101270.94;;;20.86;45.83
35248;BME280;21380;52.194;20.520;2023-05-31T00:35:39;101260.38;;;20.81;45.72
35248;BME280;21380;52.194;20.520;2023-05-31T00:38:06;101271.78;;;20.83;45.90
35248;BME280;21380;52.194;20.520;2023-05-31T00:40:33;101272.66;;;20.85;45.88
35248;BME280;21380;52.194;20.520;2023-05-31T00:43:00;101274.41;;;20.83;45.88
35248;BME280;21380;52.194;20.520;2023-05-31T00:45:26;101277.03;;;20.83;45.93
35248;BME280;21380;52.194;20.520;2023-05-31T00:47:52;101273.50;;;20.81;45.93
35248;BME280;21380;52.194;20.520;2023-05-31T00:50:18;101275.25;;;20.82;45.76
35248;BME280;21380;52.194;20.520;2023-05-31T00:52:46;101266.41;;;20.74;45.96
35248;BME280;21380;52.194;20.520;2023-05-31T00:55:12;101283.06;;;20.79;46.12
35248;BME280;21380;52.194;20.520;2023-05-31T00:57:40;101273.41;;;20.72;46.02
35248;BME280;21380;52.194;20.520;2023-05-31T01:00:06;101266.31;;;20.69;46.05
35248;BME280;21380;52.194;20.520;2023-05-31T01:02:38;101280.31;;;20.70;46.10
35248;BME280;21380;52.194;20.520;2023-05-31T01:05:07;101280.38;;;20.71;46.08
35248;BME280;21380;52.194;20.520;2023-05-31T01:07:34;101288.22;;;20.71;46.01
35248;BME280;21380;52.194;20.520;2023-05-31T01:10:01;101290.91;;;20.75;46.05
35248;BME280;21380;52.194;20.520;2023-05-31T01:15:19;101303.09;;;20.72;46.12
35248;BME280;21380;52.194;20.520;2023-05-31T01:17:56;101295.25;;;20.72;46.16
35248;BME280;21380;52.194;20.520;2023-05-31T01:20:34;101288.19;;;20.70;46.10
35248;BME280;21380;52.194;20.520;2023-05-31T01:23:04;101296.91;;;20.70;45.95
35248;BME280;21380;52.194;20.520;2023-05-31T01:28:35;101303.91;;;20.68;46.10
35248;BME280;21380;52.194;20.520;2023-05-31T01:31:07;101293.34;;;20.64;46.14
35248;BME280;21380;52.194;20.520;2023-05-31T01:33:35;101298.59;;;20.64;46.15
35248;BME280;21380;52.194;20.520;2023-05-31T01:36:01;101307.38;;;20.66;46.16
35248;BME280;21380;52.194;20.520;2023-05-31T01:38:29;101310.00;;;20.66;45.99
35248;BME280;21380;52.194;20.520;2023-05-31T01:40:55;101317.81;;;20.64;45.93
35248;BME280;21380;52.194;20.520;2023-05-31T01:43:22;101309.91;;;20.60;46.10
35248;BME280;21380;52.194;20.520;2023-05-31T01:45:49;101313.38;;;20.58;46.06
35248;BME280;21380;52.194;20.520;2023-05-31T01:48:17;101316.88;;;20.61;46.10
35248;BME280;21380;52.194;20.520;2023-05-31T01:50:44;101318.66;;;20.60;46.08
35248;BME280;21380;52.194;20.520;2023-05-31T01:53:10;101298.41;;;20.48;45.92
35248;BME280;21380;52.194;20.520;2023-05-31T01:55:36;101307.22;;;20.53;45.96
35248;BME280;21380;52.194;20.520;2023-05-31T01:58:04;101322.97;;;20.58;45.84
35248;BME280;21380;52.194;20.520;2023-05-31T02:00:30;101291.38;;;20.46;45.93
35248;BME280;21380;52.194;20.520;2023-05-31T02:02:57;101320.34;;;20.56;45.60
35248;BME280;21380;52.194;20.520;2023-05-31T02:05:23;101322.94;;;20.55;45.87
35248;BME280;21380;52.194;20.520;2023-05-31T02:07:49;101329.94;;;20.54;45.81
35248;BME280;21380;52.194;20.520;2023-05-31T02:10:15;101325.56;;;20.53;45.77
35248;BME280;21380;52.194;20.520;2023-05-31T02:12:41;101327.25;;;20.51;45.86
35248;BME280;21380;52.194;20.520;2023-05-31T02:15:08;101319.28;;;20.44;45.86
35248;BME280;21380;52.194;20.520;2023-05-31T02:17:37;101328.13;;;20.52;45.88
35248;BME280;21380;52.194;20.520;2023-05-31T02:20:10;101321.16;;;20.51;45.79
35248;BME280;21380;52.194;20.520;2023-05-31T02:22:45;101327.25;;;20.50;45.91
35248;BME280;21380;52.194;20.520;2023-05-31T02:25:12;101313.13;;;20.40;45.61
35248;BME280;21380;52.194;20.520;2023-05-31T02:27:39;101319.28;;;20.42;45.88
35248;BME280;21380;52.194;20.520;2023-05-31T02:30:07;101319.31;;;20.47;45.80
35248;BME280;21380;52.194;20.520;2023-05-31T02:32:33;101331.56;;;20.46;45.77
35248;BME280;21380;52.194;20.520;2023-05-31T02:35:11;101330.69;;;20.46;45.85
35248;BME280;21380;52.194;20.520;2023-05-31T02:37:38;101332.41;;;20.45;45.76
35248;BME280;21380;52.194;20.520;2023-05-31T02:40:06;101320.06;;;20.38;45.63
35248;BME280;21380;52.194;20.520;2023-05-31T02:42:35;101329.78;;;20.44;45.72
35248;BME280;21380;52.194;20.520;2023-05-31T02:45:02;101335.88;;;20.41;45.73
35248;BME280;21380;52.194;20.520;2023-05-31T02:47:28;101335.00;;;20.42;45.69
35248;BME280;21380;52.194;20.520;2023-05-31T02:49:54;101331.50;;;20.41;45.80
35248;BME280;21380;52.194;20.520;2023-05-31T02:52:20;101334.09;;;20.41;45.75
35248;BME280;21380;52.194;20.520;2023-05-31T02:54:49;101340.19;;;20.39;45.70
35248;BME280;21380;52.194;20.520;2023-05-31T02:57:15;101329.69;;;20.36;45.54
35248;BME280;21380;52.194;20.520;2023-05-31T02:59:45;101327.97;;;20.39;45.79
35248;BME280;21380;52.194;20.520;2023-05-31T03:02:11;101340.19;;;20.39;45.62
35248;BME280;21380;52.194;20.520;2023-05-31T03:04:37;101342.81;;;20.39;45.70
35248;BME280;21380;52.194;20.520;2023-05-31T03:07:03;101337.56;;;20.39;45.80
35248;BME280;21380;52.194;20.520;2023-05-31T03:09:29;101341.09;;;20.39;45.90
35248;BME280;21380;52.194;20.520;2023-05-31T03:11:55;101340.19;;;20.39;46.02
35248;BME280;21380;52.194;20.520;2023-05-31T03:14:21;101344.56;;;20.38;45.49
35248;BME280;21380;52.194;20.520;2023-05-31T03:16:47;101341.03;;;20.36;45.87
35248;BME280;21380;52.194;20.520;2023-05-31T03:19:13;101339.22;;;20.31;45.62
35248;BME280;21380;52.194;20.520;2023-05-31T03:21:39;101343.66;;;20.38;45.71
35248;BME280;21380;52.194;20.520;2023-05-31T03:24:05;101338.41;;;20.38;45.57
35248;BME280;21380;52.194;20.520;2023-05-31T03:26:31;101344.56;;;20.38;45.57
35248;BME280;21380;52.194;20.520;2023-05-31T03:28:57;101338.38;;;20.33;45.79
35248;BME280;21380;52.194;20.520;2023-05-31T03:31:23;101338.41;;;20.38;45.64
35248;BME280;21380;52.194;20.520;2023-05-31T03:33:51;101341.03;;;20.38;45.80
35248;BME280;21380;52.194;20.520;2023-05-31T03:36:17;101336.63;;;20.35;45.74
35248;BME280;21380;52.194;20.520;2023-05-31T03:38:42;101341.03;;;20.38;45.88
35248;BME280;21380;52.194;20.520;2023-05-31T03:41:08;101345.44;;;20.39;45.94
35248;BME280;21380;52.194;20.520;2023-05-31T03:43:34;101345.44;;;20.39;46.02
35248;BME280;21380;52.194;20.520;2023-05-31T03:46:01;101344.53;;;20.37;46.22
35248;BME280;21380;52.194;20.520;2023-05-31T03:48:30;101342.81;;;20.39;46.05
35248;BME280;21380;52.194;20.520;2023-05-31T03:50:57;101334.84;;;20.31;46.06
35248;BME280;21380;52.194;20.520;2023-05-31T03:53:23;101345.41;;;20.37;45.95
35248;BME280;21380;52.194;20.520;2023-05-31T03:55:49;101348.06;;;20.39;46.04
35248;BME280;21380;52.194;20.520;2023-05-31T03:58:15;101351.59;;;20.41;45.93
35248;BME280;21380;52.194;20.520;2023-05-31T04:00:41;101352.47;;;20.43;46.10
35248;BME280;21380;52.194;20.520;2023-05-31T04:03:07;101353.38;;;20.44;45.86
35248;BME280;21380;52.194;20.520;2023-05-31T04:05:33;101357.75;;;20.45;46.08
35248;BME280;21380;52.194;20.520;2023-05-31T04:07:59;101349.84;;;20.43;45.92
35248;BME280;21380;52.194;20.520;2023-05-31T04:10:27;101349.84;;;20.43;46.06
35248;BME280;21380;52.194;20.520;2023-05-31T04:12:53;101357.72;;;20.43;45.96
35248;BME280;21380;52.194;20.520;2023-05-31T04:15:19;101361.31;;;20.48;45.80
35248;BME280;21380;52.194;20.520;2023-05-31T04:17:45;101337.56;;;20.37;46.00
35248;BME280;21380;52.194;20.520;2023-05-31T04:20:12;101347.22;;;20.43;45.92
35248;BME280;21380;52.194;20.520;2023-05-31T04:22:37;101336.75;;;20.43;46.03
35248;BME280;21380;52.194;20.520;2023-05-31T04:25:04;101346.44;;;20.47;45.94
35248;BME280;21380;52.194;20.520;2023-05-31T04:27:30;101355.25;;;20.52;46.10
35248;BME280;21380;52.194;20.520;2023-05-31T04:29:58;101344.69;;;20.49;46.14
35248;BME280;21380;52.194;20.520;2023-05-31T04:32:24;101346.47;;;20.50;45.99
35248;BME280;21380;52.194;20.520;2023-05-31T04:34:50;101347.38;;;20.52;45.93
35248;BME280;21380;52.194;20.520;2023-05-31T04:37:26;101351.75;;;20.53;45.90
35248;BME280;21380;52.194;20.520;2023-05-31T04:39:54;101353.53;;;20.54;46.06
35248;BME280;21380;52.194;20.520;2023-05-31T04:42:20;101337.75;;;20.51;46.01
35248;BME280;21380;52.194;20.520;2023-05-31T04:44:46;101329.88;;;20.50;45.92
35248;BME280;21380;52.194;20.520;2023-05-31T04:47:12;101342.22;;;20.57;45.92
35248;BME280;21380;52.194;20.520;2023-05-31T04:49:41;101333.38;;;20.52;45.90
35248;BME280;21380;52.194;20.520;2023-05-31T04:52:07;101333.38;;;20.52;45.77
35248;BME280;21380;52.194;20.520;2023-05-31T04:54:34;101334.25;;;20.51;45.97
35248;BME280;21380;52.194;20.520;2023-05-31T04:57:00;101350.09;;;20.58;45.95
35248;BME280;21380;52.194;20.520;2023-05-31T04:59:28;101332.50;;;20.51;45.84
35248;BME280;21380;52.194;20.520;2023-05-31T05:01:54;101357.09;;;20.60;45.78
35248;BME280;21380;52.194;20.520;2023-05-31T05:04:20;101352.72;;;20.60;45.83
35248;BME280;21380;52.194;20.520;2023-05-31T05:06:45;101351.00;;;20.62;45.93
35248;BME280;21380;52.194;20.520;2023-05-31T05:09:11;101335.13;;;20.53;45.88
35248;BME280;21380;52.194;20.520;2023-05-31T05:11:37;101336.06;;;20.56;45.87
35248;BME280;21380;52.194;20.520;2023-05-31T05:14:03;101333.44;;;20.56;45.71
35248;BME280;21380;52.194;20.520;2023-05-31T05:16:29;101347.56;;;20.65;45.81
35248;BME280;21380;52.194;20.520;2023-05-31T05:18:56;101342.22;;;20.60;45.98
35248;BME280;21380;52.194;20.520;2023-05-31T05:21:22;101351.94;;;20.66;45.71
35248;BME280;21380;52.194;20.520;2023-05-31T05:23:48;101341.44;;;20.66;45.84
35248;BME280;21380;52.194;20.520;2023-05-31T05:26:13;101351.97;;;20.69;45.71
35248;BME280;21380;52.194;20.520;2023-05-31T05:28:39;101344.09;;;20.67;45.72
35248;BME280;21380;52.194;20.520;2023-05-31T05:31:05;101345.84;;;20.68;45.50
35248;BME280;21380;52.194;20.520;2023-05-31T05:33:31;101345.91;;;20.71;45.62
35248;BME280;21380;52.194;20.520;2023-05-31T05:35:57;101326.56;;;20.65;45.61
35248;BME280;21380;52.194;20.520;2023-05-31T05:38:23;101346.84;;;20.75;45.45
35248;BME280;21380;52.194;20.520;2023-05-31T05:40:49;101329.19;;;20.65;45.66
35248;BME280;21380;52.194;20.520;2023-05-31T05:43:15;101352.09;;;20.75;45.55
35248;BME280;21380;52.194;20.520;2023-05-31T05:45:41;101338.97;;;20.73;45.61
35248;BME280;21380;52.194;20.520;2023-05-31T05:48:07;101343.38;;;20.78;45.47
35248;BME280;21380;52.194;20.520;2023-05-31T05:50:32;101331.97;;;20.76;45.58
35248;BME280;21380;52.194;20.520;2023-05-31T05:52:59;101339.88;;;20.77;45.54
35248;BME280;21380;52.194;20.520;2023-05-31T05:55:24;101344.22;;;20.77;45.50
35248;BME280;21380;52.194;20.520;2023-05-31T05:57:53;101333.69;;;20.72;45.42
35248;BME280;21380;52.194;20.520;2023-05-31T06:00:19;101342.34;;;20.69;45.48
35248;BME280;21380;52.194;20.520;2023-05-31T06:02:47;101345.03;;;20.71;45.42
35248;BME280;21380;52.194;20.520;2023-05-31T06:05:13;101347.69;;;20.76;45.54
35248;BME280;21380;52.194;20.520;2023-05-31T06:07:39;101335.44;;;20.71;45.53
35248;BME280;21380;52.194;20.520;2023-05-31T06:10:05;101353.84;;;20.75;45.50
35248;BME280;21380;52.194;20.520;2023-05-31T06:12:32;101344.13;;;20.70;45.52
35248;BME280;21380;52.194;20.520;2023-05-31T06:14:58;101343.25;;;20.70;45.43
35248;BME280;21380;52.194;20.520;2023-05-31T06:17:24;101349.44;;;20.73;45.34
35248;BME280;21380;52.194;20.520;2023-05-31T06:19:50;101342.44;;;20.74;45.25
35248;BME280;21380;52.194;20.520;2023-05-31T06:22:16;101340.72;;;20.75;45.26
35248;BME280;21380;52.194;20.520;2023-05-31T06:24:42;101342.44;;;20.74;45.19
35248;BME280;21380;52.194;20.520;2023-05-31T06:27:08;101328.34;;;20.66;45.28
35248;BME280;21380;52.194;20.520;2023-05-31T06:29:35;101345.03;;;20.71;45.25
35248;BME280;21380;52.194;20.520;2023-05-31T06:32:01;101345.91;;;20.71;45.25
35248;BME280;21380;52.194;20.520;2023-05-31T06:34:27;101328.34;;;20.67;45.12
35248;BME280;21380;52.194;20.520;2023-05-31T06:36:53;101324.88;;;20.68;45.20
35248;BME280;21380;52.194;20.520;2023-05-31T06:39:21;101329.31;;;20.71;45.22
35248;BME280;21380;52.194;20.520;2023-05-31T06:41:47;101327.50;;;20.70;45.19
35248;BME280;21380;52.194;20.520;2023-05-31T06:44:13;101322.19;;;20.64;45.16
35248;BME280;21380;52.194;20.520;2023-05-31T06:46:39;101321.34;;;20.65;45.03
35248;BME280;21380;52.194;20.520;2023-05-31T06:49:05;101328.38;;;20.69;45.03
35248;BME280;21380;52.194;20.520;2023-05-31T06:51:31;101319.56;;;20.62;45.12
35248;BME280;21380;52.194;20.520;2023-05-31T06:53:57;101320.50;;;20.69;45.00
35248;BME280;21380;52.194;20.520;2023-05-31T06:56:25;101316.09;;;20.65;45.02
35248;BME280;21380;52.194;20.520;2023-05-31T06:58:52;101323.97;;;20.68;44.92
35248;BME280;21380;52.194;20.520;2023-05-31T07:01:18;101323.13;;;20.67;44.80
35248;BME280;21380;52.194;20.520;2023-05-31T07:03:44;101316.09;;;20.65;45.03
35248;BME280;21380;52.194;20.520;2023-05-31T07:06:10;101310.84;;;20.65;45.09
35248;BME280;21380;52.194;20.520;2023-05-31T07:08:45;101317.00;;;20.68;45.14
35248;BME280;21380;52.194;20.520;2023-05-31T07:11:12;101310.88;;;20.69;45.05
35248;BME280;21380;52.194;20.520;2023-05-31T07:13:38;101304.75;;;20.67;45.08
35248;BME280;21380;52.194;20.520;2023-05-31T07:16:04;101320.59;;;20.12;41.75
35248;BME280;21380;52.194;20.520;2023-05-31T07:18:30;101312.63;;;19.08;41.45
35248;BME280;21380;52.194;20.520;2023-05-31T07:20:56;101310.13;;;18.71;40.55
35248;BME280;21380;52.194;20.520;2023-05-31T07:23:23;101313.75;;;18.78;41.91
35248;BME280;21380;52.194;20.520;2023-05-31T07:25:50;101306.69;;;19.17;42.00
35248;BME280;21380;52.194;20.520;2023-05-31T07:28:15;101303.66;;;19.41;41.79
35248;BME280;21380;52.194;20.520;2023-05-31T07:30:41;101303.94;;;19.58;40.57
35248;BME280;21380;52.194;20.520;2023-05-31T07:33:07;101297.22;;;19.72;40.83
35248;BME280;21380;52.194;20.520;2023-05-31T07:35:33;101286.00;;;19.78;40.88
35248;BME280;21380;52.194;20.520;2023-05-31T07:37:59;101296.66;;;19.90;40.80
35248;BME280;21380;52.194;20.520;2023-05-31T07:40:25;101295.03;;;19.97;40.45
35248;BME280;21380;52.194;20.520;2023-05-31T07:42:53;101289.84;;;20.02;39.77
35248;BME280;21380;52.194;20.520;2023-05-31T07:45:19;101286.44;;;20.06;40.41
35248;BME280;21380;52.194;20.520;2023-05-31T07:47:52;101290.00;;;20.09;40.26
35248;BME280;21380;52.194;20.520;2023-05-31T07:50:21;101287.47;;;20.16;40.11
35248;BME280;21380;52.194;20.520;2023-05-31T07:52:46;101285.72;;;20.16;39.86
35248;BME280;21380;52.194;20.520;2023-05-31T07:55:15;101290.97;;;20.18;40.07
35248;BME280;21380;52.194;20.520;2023-05-31T07:57:43;101293.66;;;20.22;40.13
35248;BME280;21380;52.194;20.520;2023-05-31T08:00:10;101262.13;;;20.13;40.07
35248;BME280;21380;52.194;20.520;2023-05-31T08:02:42;101289.34;;;20.26;40.52
35248;BME280;21380;52.194;20.520;2023-05-31T08:05:09;101290.22;;;20.27;40.38
35248;BME280;21380;52.194;20.520;2023-05-31T08:07:34;101283.28;;;20.29;40.24
35248;BME280;21380;52.194;20.520;2023-05-31T08:10:01;101274.41;;;20.20;40.83
35248;BME280;21380;52.194;20.520;2023-05-31T08:12:27;101281.91;;;19.43;38.05
35248;BME280;21380;52.194;20.520;2023-05-31T08:14:53;101220.94;;;18.54;34.91
35248;BME280;21380;52.194;20.520;2023-05-31T08:17:20;101279.53;;;19.10;38.08
35248;BME280;21380;52.194;20.520;2023-05-31T08:19:46;101279.19;;;19.37;37.92
35248;BME280;21380;52.194;20.520;2023-05-31T08:22:12;101275.13;;;19.55;38.58
35248;BME280;21380;52.194;20.520;2023-05-31T08:24:41;101258.69;;;19.62;40.79
35248;BME280;21380;52.194;20.520;2023-05-31T08:27:07;101276.41;;;19.80;40.57
35248;BME280;21380;52.194;20.520;2023-05-31T08:29:35;101271.31;;;19.88;40.66
35248;BME280;21380;52.194;20.520;2023-05-31T08:32:04;101234.41;;;19.72;40.30
35248;BME280;21380;52.194;20.520;2023-05-31T08:34:33;101268.88;;;19.99;40.33
35248;BME280;21380;52.194;20.520;2023-05-31T08:36:58;101243.47;;;19.93;40.24
35248;BME280;21380;52.194;20.520;2023-05-31T08:39:25;101261.97;;;20.05;39.78
35248;BME280;21380;52.194;20.520;2023-05-31T08:42:04;101234.81;;;19.99;39.52
35248;BME280;21380;52.194;20.520;2023-05-31T08:44:33;101185.50;;;19.70;39.81
35248;BME280;21380;52.194;20.520;2023-05-31T08:47:08;101256.88;;;20.15;39.55
35248;BME280;21380;52.194;20.520;2023-05-31T08:49:39;101262.16;;;20.16;39.56
35248;BME280;21380;52.194;20.520;2023-05-31T08:52:06;101230.53;;;20.04;39.78
35248;BME280;21380;52.194;20.520;2023-05-31T08:54:34;101233.16;;;20.05;39.46
35248;BME280;21380;52.194;20.520;2023-05-31T08:57:04;101182.25;;;19.85;39.27
35248;BME280;21380;52.194;20.520;2023-05-31T08:59:33;101226.31;;;20.14;39.65
35248;BME280;21380;52.194;20.520;2023-05-31T09:02:00;101224.47;;;20.08;39.98
35248;BME280;21380;52.194;20.520;2023-05-31T09:04:26;101247.44;;;20.26;39.77
35248;BME280;21380;52.194;20.520;2023-05-31T09:06:53;101178.78;;;19.86;39.87
35248;BME280;21380;52.194;20.520;2023-05-31T09:09:22;101150.66;;;19.74;39.71
35248;BME280;21380;52.194;20.520;2023-05-31T09:11:47;101177.97;;;19.90;39.97
35248;BME280;21380;52.194;20.520;2023-05-31T09:14:13;101243.03;;;20.23;39.88
35248;BME280;21380;52.194;20.520;2023-05-31T09:16:42;101233.41;;;20.22;39.79
35248;BME280;21380;52.194;20.520;2023-05-31T09:19:09;101249.25;;;20.32;39.92
35248;BME280;21380;52.194;20.520;2023-05-31T09:21:43;101240.53;;;20.33;39.73
35248;BME280;21380;52.194;20.520;2023-05-31T09:24:10;101244.06;;;20.33;39.91
35248;BME280;21380;52.194;20.520;2023-05-31T09:26:45;101245.78;;;20.34;40.08
35248;BME280;21380;52.194;20.520;2023-05-31T09:29:13;101247.53;;;20.34;39.95
35248;BME280;21380;52.194;20.520;2023-05-31T09:31:39;101242.31;;;20.35;39.97
35248;BME280;21380;52.194;20.520;2023-05-31T09:34:27;101238.75;;;20.30;40.19
35248;BME280;21380;52.194;20.520;2023-05-31T09:36:58;101244.06;;;20.36;40.12
35248;BME280;21380;52.194;20.520;2023-05-31T09:39:25;101177.19;;;19.97;40.03
35248;BME280;21380;52.194;20.520;2023-05-31T09:41:51;101164.88;;;19.90;40.30
35248;BME280;21380;52.194;20.520;2023-05-31T09:44:18;101249.31;;;20.38;40.04
35248;BME280;21380;52.194;20.520;2023-05-31T09:46:45;101243.22;;;20.36;39.70
35248;BME280;21380;52.194;20.520;2023-05-31T09:49:14;101201.81;;;20.08;39.86
35248;BME280;21380;52.194;20.520;2023-05-31T09:51:49;101242.38;;;20.38;39.49
35248;BME280;21380;52.194;20.520;2023-05-31T09:54:18;101192.25;;;20.14;39.85
35248;BME280;21380;52.194;20.520;2023-05-31T09:56:50;101187.03;;;20.15;40.02
35248;BME280;21380;52.194;20.520;2023-05-31T09:59:16;101191.41;;;20.16;39.91
35248;BME280;21380;52.194;20.520;2023-05-31T10:01:43;101227.56;;;20.42;40.22
35248;BME280;21380;52.194;20.520;2023-05-31T10:04:12;101164.22;;;20.06;40.10
35248;BME280;21380;52.194;20.520;2023-05-31T10:06:38;101239.78;;;20.43;40.34
35248;BME280;21380;52.194;20.520;2023-05-31T10:09:07;101207.28;;;20.27;40.19
35248;BME280;21380;52.194;20.520;2023-05-31T10:11:35;101218.78;;;20.38;40.28
35248;BME280;21380;52.194;20.520;2023-05-31T10:14:03;101113.22;;;19.78;40.44
35248;BME280;21380;52.194;20.520;2023-05-31T10:16:38;101218.81;;;20.43;39.97
35248;BME280;21380;52.194;20.520;2023-05-31T10:19:21;101128.16;;;19.85;39.90
35248;BME280;21380;52.194;20.520;2023-05-31T10:21:49;101203.00;;;20.34;40.04
35248;BME280;21380;52.194;20.520;2023-05-31T10:27:28;101226.72;;;20.45;39.82
35248;BME280;21380;52.194;20.520;2023-05-31T10:29:56;101230.22;;;20.45;39.61
35248;BME280;21380;52.194;20.520;2023-05-31T10:32:26;101215.31;;;20.42;40.22
35248;BME280;21380;52.194;20.520;2023-05-31T10:34:53;101210.09;;;20.42;40.30
35248;BME280;21380;52.194;20.520;2023-05-31T10:37:20;101198.59;;;20.33;40.22
35248;BME280;21380;52.194;20.520;2023-05-31T10:48:02;101203.16;;;20.49;40.36
35248;BME280;21380;52.194;20.520;2023-05-31T10:50:32;101197.94;;;20.49;40.44
35248;BME280;21380;52.194;20.520;2023-05-31T10:53:11;101203.16;;;20.49;40.46
35248;BME280;21380;52.194;20.520;2023-05-31T10:55:42;101202.22;;;20.42;39.84
35248;BME280;21380;52.194;20.520;2023-05-31T11:01:07;101197.94;;;20.49;40.08
35248;BME280;21380;52.194;20.520;2023-05-31T11:03:35;101144.28;;;20.19;40.35
35248;BME280;21380;52.194;20.520;2023-05-31T11:06:03;101158.44;;;20.32;40.36
35248;BME280;21380;52.194;20.520;2023-05-31T11:08:32;101193.59;;;20.51;40.59
35248;BME280;21380;52.194;20.520;2023-05-31T11:14:04;101167.31;;;20.44;40.65
35248;BME280;21380;52.194;20.520;2023-05-31T11:19:17;101175.22;;;20.48;40.56
35248;BME280;21380;52.194;20.520;2023-05-31T11:27:04;101166.47;;;20.49;40.78
35248;BME280;21380;52.194;20.520;2023-05-31T11:32:10;101167.44;;;20.56;40.83
35248;BME280;21380;52.194;20.520;2023-05-31T11:37:14;101174.44;;;20.57;40.44
35248;BME280;21380;52.194;20.520;2023-05-31T11:39:43;101155.19;;;20.53;40.63
35248;BME280;21380;52.194;20.520;2023-05-31T11:42:13;101159.56;;;20.54;40.66
35248;BME280;21380;52.194;20.520;2023-05-31T11:44:44;101162.22;;;20.57;40.61
35248;BME280;21380;52.194;20.520;2023-05-31T11:47:17;101151.75;;;20.59;40.42
35248;BME280;21380;52.194;20.520;2023-05-31T11:49:44;101147.31;;;20.53;40.13
35248;BME280;21380;52.194;20.520;2023-05-31T11:52:17;101149.97;;;20.58;40.26
35248;BME280;21380;52.194;20.520;2023-05-31T11:54:45;101150.03;;;20.60;40.26
35248;BME280;21380;52.194;20.520;2023-05-31T11:57:12;101120.19;;;20.50;40.10
35248;BME280;21380;52.194;20.520;2023-05-31T11:59:39;101117.53;;;20.47;39.90
35248;BME280;21380;52.194;20.520;2023-05-31T12:02:07;101108.78;;;20.45;40.12
35248;BME280;21380;52.194;20.520;2023-05-31T12:04:36;101138.63;;;20.61;40.22
35248;BME280;21380;52.194;20.520;2023-05-31T12:07:09;101132.53;;;20.57;40.27
35248;BME280;21380;52.194;20.520;2023-05-31T12:09:35;101135.16;;;20.62;39.31
35248;BME280;21380;52.194;20.520;2023-05-31T12:12:03;101135.16;;;20.62;39.35
35248;BME280;21380;52.194;20.520;2023-05-31T12:14:31;101139.56;;;20.63;39.52
35248;BME280;21380;52.194;20.520;2023-05-31T12:17:02;101134.31;;;20.63;39.82
35248;BME280;21380;52.194;20.520;2023-05-31T12:19:29;101120.28;;;20.59;39.87
35248;BME280;21380;52.194;20.520;2023-05-31T12:21:55;101128.19;;;20.64;39.57
35248;BME280;21380;52.194;20.520;2023-05-31T12:24:22;101115.94;;;20.61;39.89
35248;BME280;21380;52.194;20.520;2023-05-31T12:26:48;101118.56;;;20.61;39.98
35248;BME280;21380;52.194;20.520;2023-05-31T12:29:15;101115.09;;;20.64;40.00
35248;BME280;21380;52.194;20.520;2023-05-31T12:31:42;101122.09;;;20.65;40.16
35248;BME280;21380;52.194;20.520;2023-05-31T12:34:09;101115.09;;;20.65;40.36
35248;BME280;21380;52.194;20.520;2023-05-31T12:39:21;101101.13;;;20.65;40.45
35248;BME280;21380;52.194;20.520;2023-05-31T12:41:48;101096.75;;;20.65;40.31
35248;BME280;21380;52.194;20.520;2023-05-31T12:44:16;101101.13;;;20.66;40.37
35248;BME280;21380;52.194;20.520;2023-05-31T12:46:45;101088.91;;;20.65;40.46
35248;BME280;21380;52.194;20.520;2023-05-31T12:49:31;101090.66;;;20.66;40.27
35248;BME280;21380;52.194;20.520;2023-05-31T12:52:04;101084.53;;;20.66;40.38
35248;BME280;21380;52.194;20.520;2023-05-31T12:54:32;101075.72;;;20.61;40.32
35248;BME280;21380;52.194;20.520;2023-05-31T12:57:01;101076.69;;;20.66;40.30
35248;BME280;21380;52.194;20.520;2023-05-31T12:59:33;101074.91;;;20.65;40.17
35248;BME280;21380;52.194;20.520;2023-05-31T13:02:00;101074.06;;;20.66;40.48
35248;BME280;21380;52.194;20.520;2023-05-31T13:04:26;101075.78;;;20.67;40.20
35248;BME280;21380;52.194;20.520;2023-05-31T13:06:53;101071.44;;;20.67;40.28
35248;BME280;21380;52.194;20.520;2023-05-31T13:09:19;101075.78;;;20.67;40.13
35248;BME280;21380;52.194;20.520;2023-05-31T13:11:46;101069.69;;;20.68;40.45
35248;BME280;21380;52.194;20.520;2023-05-31T13:14:15;101064.44;;;20.68;40.51
35248;BME280;21380;52.194;20.520;2023-05-31T13:16:42;101027.63;;;20.54;39.77
35248;BME280;21380;52.194;20.520;2023-05-31T13:19:08;101039.06;;;20.62;39.85
35248;BME280;21380;52.194;20.520;2023-05-31T13:21:35;101058.34;;;20.67;39.97